sensor_id;sensor_type;location;lat;lon;timestamp;P1;durP1;ratioP1;P2;durP2;ratioP2
23868;SDS011;12115;47.128;15.422;2022-11-27T00:01:25;3.60;;;2.60;;
23868;SDS011;12115;47.128;15.422;2022-11-27T00:03:53;3.60;;;2.28;;
23868;SDS011;12115;47.128;15.422;2022-11-27T00:06:22;3.72;;;2.60;;
23868;SDS011;12115;47.128;15.422;2022-11-27T00:08:51;3.75;;;2.17;;
23868;SDS011;12115;47.128;15.422;2022-11-27T00:11:19;4.07;;;2.30;;
23868;SDS011;12115;47.128;15.422;2022-11-27T00:13:47;4.15;;;2.45;;
23868;SDS011;12115;47.128;15.422;2022-11-27T00:16:15;5.28;;;2.10;;
23868;SDS011;12115;47.128;15.422;2022-11-27T00:18:43;6.80;;;3.00;;
23868;SDS011;12115;47.128;15.422;2022-11-27T00:21:12;5.32;;;3.03;;
23868;SDS011;12115;47.128;15.422;2022-11-27T00:23:41;4.87;;;2.90;;
23868;SDS011;12115;47.128;15.422;2022-11-27T00:26:09;6.78;;;4.00;;
23868;SDS011;12115;47.128;15.422;2022-11-27T00:28:37;5.70;;;3.55;;
23868;SDS011;12115;47.128;15.422;2022-11-27T00:31:05;5.25;;;3.65;;
23868;SDS011;12115;47.128;15.422;2022-11-27T00:33:34;4.80;;;2.92;;
23868;SDS011;12115;47.128;15.422;2022-11-27T00:36:03;3.15;;;2.53;;
23868;SDS011;12115;47.128;15.422;2022-11-27T00:38:31;5.45;;;3.55;;
23868;SDS011;12115;47.128;15.422;2022-11-27T00:41:05;6.60;;;4.05;;
23868;SDS011;12115;47.128;15.422;2022-11-27T00:43:33;4.45;;;2.60;;
23868;SDS011;12115;47.128;15.422;2022-11-27T00:46:11;4.60;;;3.40;;
23868;SDS011;12115;47.128;15.422;2022-11-27T00:48:42;4.93;;;3.42;;
23868;SDS011;12115;47.128;15.422;2022-11-27T00:51:12;4.32;;;3.38;;
23868;SDS011;12115;47.128;15.422;2022-11-27T00:53:41;9.20;;;3.65;;
23868;SDS011;12115;47.128;15.422;2022-11-27T00:56:09;6.97;;;3.58;;
23868;SDS011;12115;47.128;15.422;2022-11-27T00:58:45;5.88;;;3.58;;
23868;SDS011;12115;47.128;15.422;2022-11-27T01:01:12;4.93;;;3.00;;
23868;SDS011;12115;47.128;15.422;2022-11-27T01:03:45;5.20;;;2.40;;
23868;SDS011;12115;47.128;15.422;2022-11-27T01:06:13;3.60;;;2.83;;
23868;SDS011;12115;47.128;15.422;2022-11-27T01:08:42;4.47;;;2.92;;
23868;SDS011;12115;47.128;15.422;2022-11-27T01:11:28;3.88;;;2.90;;
23868;SDS011;12115;47.128;15.422;2022-11-27T01:14:00;4.75;;;2.85;;
23868;SDS011;12115;47.128;15.422;2022-11-27T01:16:32;8.23;;;3.78;;
23868;SDS011;12115;47.128;15.422;2022-11-27T01:19:00;5.60;;;3.00;;
23868;SDS011;12115;47.128;15.422;2022-11-27T01:21:28;3.63;;;2.67;;
23868;SDS011;12115;47.128;15.422;2022-11-27T01:23:58;3.72;;;2.50;;
23868;SDS011;12115;47.128;15.422;2022-11-27T01:26:25;3.60;;;2.58;;
23868;SDS011;12115;47.128;15.422;2022-11-27T01:28:53;3.90;;;2.67;;
23868;SDS011;12115;47.128;15.422;2022-11-27T01:31:22;5.05;;;2.67;;
23868;SDS011;12115;47.128;15.422;2022-11-27T01:33:52;4.57;;;2.72;;
23868;SDS011;12115;47.128;15.422;2022-11-27T01:36:20;4.80;;;3.22;;
23868;SDS011;12115;47.128;15.422;2022-11-27T01:38:48;5.75;;;3.10;;
23868;SDS011;12115;47.128;15.422;2022-11-27T01:41:27;4.72;;;3.30;;
23868;SDS011;12115;47.128;15.422;2022-11-27T01:44:00;3.47;;;2.70;;
23868;SDS011;12115;47.128;15.422;2022-11-27T01:46:34;3.55;;;2.83;;
23868;SDS011;12115;47.128;15.422;2022-11-27T01:51:39;3.83;;;2.90;;
23868;SDS011;12115;47.128;15.422;2022-11-27T01:54:37;5.15;;;2.88;;
23868;SDS011;12115;47.128;15.422;2022-11-27T01:57:13;3.63;;;2.75;;
23868;SDS011;12115;47.128;15.422;2022-11-27T01:59:45;4.28;;;3.10;;
23868;SDS011;12115;47.128;15.422;2022-11-27T02:02:13;4.20;;;2.42;;
23868;SDS011;12115;47.128;15.422;2022-11-27T02:04:41;3.63;;;2.47;;
23868;SDS011;12115;47.128;15.422;2022-11-27T02:07:08;3.65;;;2.72;;
23868;SDS011;12115;47.128;15.422;2022-11-27T02:09:35;7.40;;;3.10;;
23868;SDS011;12115;47.128;15.422;2022-11-27T02:12:19;4.85;;;2.70;;
23868;SDS011;12115;47.128;15.422;2022-11-27T02:15:15;4.28;;;2.72;;
23868;SDS011;12115;47.128;15.422;2022-11-27T02:17:56;5.93;;;3.20;;
23868;SDS011;12115;47.128;15.422;2022-11-27T02:33:42;4.70;;;3.30;;
23868;SDS011;12115;47.128;15.422;2022-11-27T02:36:20;5.18;;;2.70;;
23868;SDS011;12115;47.128;15.422;2022-11-27T02:38:55;4.38;;;3.08;;
23868;SDS011;12115;47.128;15.422;2022-11-27T02:41:37;3.72;;;2.40;;
23868;SDS011;12115;47.128;15.422;2022-11-27T02:44:13;4.20;;;2.83;;
23868;SDS011;12115;47.128;15.422;2022-11-27T02:46:41;3.40;;;2.78;;
23868;SDS011;12115;47.128;15.422;2022-11-27T02:49:11;4.32;;;2.83;;
23868;SDS011;12115;47.128;15.422;2022-11-27T02:51:43;4.47;;;3.00;;
23868;SDS011;12115;47.128;15.422;2022-11-27T02:54:16;5.95;;;2.60;;
23868;SDS011;12115;47.128;15.422;2022-11-27T02:56:47;4.28;;;2.47;;
23868;SDS011;12115;47.128;15.422;2022-11-27T02:59:17;4.28;;;2.45;;
23868;SDS011;12115;47.128;15.422;2022-11-27T03:01:47;4.32;;;2.70;;
23868;SDS011;12115;47.128;15.422;2022-11-27T03:04:29;3.75;;;2.70;;
23868;SDS011;12115;47.128;15.422;2022-11-27T03:09:34;5.35;;;2.90;;
23868;SDS011;12115;47.128;15.422;2022-11-27T03:12:04;6.40;;;3.78;;
23868;SDS011;12115;47.128;15.422;2022-11-27T03:14:34;5.70;;;3.17;;
23868;SDS011;12115;47.128;15.422;2022-11-27T03:24:53;5.47;;;3.47;;
23868;SDS011;12115;47.128;15.422;2022-11-27T03:27:21;6.18;;;3.22;;
23868;SDS011;12115;47.128;15.422;2022-11-27T03:30:03;5.03;;;2.88;;
23868;SDS011;12115;47.128;15.422;2022-11-27T03:32:34;5.78;;;3.28;;
23868;SDS011;12115;47.128;15.422;2022-11-27T03:35:02;8.13;;;3.20;;
23868;SDS011;12115;47.128;15.422;2022-11-27T03:37:31;5.43;;;3.05;;
23868;SDS011;12115;47.128;15.422;2022-11-27T03:39:58;5.20;;;3.53;;
23868;SDS011;12115;47.128;15.422;2022-11-27T03:42:30;4.53;;;3.38;;
23868;SDS011;12115;47.128;15.422;2022-11-27T03:50:27;5.57;;;3.25;;
23868;SDS011;12115;47.128;15.422;2022-11-27T03:58:37;3.58;;;2.83;;
23868;SDS011;12115;47.128;15.422;2022-11-27T04:01:10;5.45;;;3.00;;
23868;SDS011;12115;47.128;15.422;2022-11-27T04:06:07;5.75;;;2.55;;
23868;SDS011;12115;47.128;15.422;2022-11-27T04:08:34;4.75;;;3.28;;
23868;SDS011;12115;47.128;15.422;2022-11-27T04:11:01;3.80;;;2.50;;
23868;SDS011;12115;47.128;15.422;2022-11-27T04:13:29;4.13;;;2.35;;
23868;SDS011;12115;47.128;15.422;2022-11-27T04:15:58;3.58;;;2.63;;
23868;SDS011;12115;47.128;15.422;2022-11-27T04:18:26;4.53;;;2.40;;
23868;SDS011;12115;47.128;15.422;2022-11-27T04:20:53;4.07;;;2.55;;
23868;SDS011;12115;47.128;15.422;2022-11-27T04:23:20;3.38;;;2.60;;
23868;SDS011;12115;47.128;15.422;2022-11-27T04:25:47;3.85;;;2.83;;
23868;SDS011;12115;47.128;15.422;2022-11-27T04:28:14;4.22;;;2.75;;
23868;SDS011;12115;47.128;15.422;2022-11-27T04:30:43;5.43;;;3.88;;
23868;SDS011;12115;47.128;15.422;2022-11-27T04:33:10;5.55;;;3.70;;
23868;SDS011;12115;47.128;15.422;2022-11-27T04:35:37;3.47;;;2.90;;
23868;SDS011;12115;47.128;15.422;2022-11-27T04:38:04;5.35;;;3.30;;
23868;SDS011;12115;47.128;15.422;2022-11-27T04:40:31;3.92;;;2.67;;
23868;SDS011;12115;47.128;15.422;2022-11-27T04:42:58;3.50;;;2.50;;
23868;SDS011;12115;47.128;15.422;2022-11-27T04:45:25;4.38;;;2.45;;
23868;SDS011;12115;47.128;15.422;2022-11-27T04:47:53;3.95;;;2.53;;
23868;SDS011;12115;47.128;15.422;2022-11-27T04:50:20;4.60;;;2.60;;
23868;SDS011;12115;47.128;15.422;2022-11-27T04:52:47;3.50;;;2.70;;
23868;SDS011;12115;47.128;15.422;2022-11-27T04:55:14;4.68;;;2.95;;
23868;SDS011;12115;47.128;15.422;2022-11-27T04:57:41;3.83;;;2.40;;
23868;SDS011;12115;47.128;15.422;2022-11-27T05:00:08;4.20;;;2.30;;
23868;SDS011;12115;47.128;15.422;2022-11-27T05:02:35;2.97;;;2.08;;
23868;SDS011;12115;47.128;15.422;2022-11-27T05:05:03;4.05;;;2.30;;
23868;SDS011;12115;47.128;15.422;2022-11-27T05:07:30;2.63;;;2.42;;
23868;SDS011;12115;47.128;15.422;2022-11-27T05:09:57;5.32;;;2.90;;
23868;SDS011;12115;47.128;15.422;2022-11-27T05:12:24;2.63;;;2.33;;
23868;SDS011;12115;47.128;15.422;2022-11-27T05:14:51;2.72;;;2.08;;
23868;SDS011;12115;47.128;15.422;2022-11-27T05:17:18;3.38;;;2.13;;
23868;SDS011;12115;47.128;15.422;2022-11-27T05:19:45;3.90;;;2.10;;
23868;SDS011;12115;47.128;15.422;2022-11-27T05:22:12;3.67;;;2.38;;
23868;SDS011;12115;47.128;15.422;2022-11-27T05:24:39;2.80;;;1.90;;
23868;SDS011;12115;47.128;15.422;2022-11-27T05:27:06;3.55;;;2.42;;
23868;SDS011;12115;47.128;15.422;2022-11-27T05:29:33;3.67;;;2.13;;
23868;SDS011;12115;47.128;15.422;2022-11-27T05:32:00;2.17;;;1.95;;
23868;SDS011;12115;47.128;15.422;2022-11-27T05:34:28;2.67;;;2.20;;
23868;SDS011;12115;47.128;15.422;2022-11-27T05:36:55;2.90;;;2.13;;
23868;SDS011;12115;47.128;15.422;2022-11-27T05:39:22;2.70;;;2.05;;
23868;SDS011;12115;47.128;15.422;2022-11-27T05:41:49;2.80;;;2.15;;
23868;SDS011;12115;47.128;15.422;2022-11-27T05:44:16;2.47;;;2.05;;
23868;SDS011;12115;47.128;15.422;2022-11-27T05:46:43;4.85;;;2.30;;
23868;SDS011;12115;47.128;15.422;2022-11-27T05:49:10;5.07;;;2.10;;
23868;SDS011;12115;47.128;15.422;2022-11-27T05:51:39;2.15;;;1.95;;
23868;SDS011;12115;47.128;15.422;2022-11-27T05:54:09;4.50;;;2.70;;
23868;SDS011;12115;47.128;15.422;2022-11-27T05:56:36;3.47;;;2.42;;
23868;SDS011;12115;47.128;15.422;2022-11-27T05:59:03;4.45;;;2.13;;
23868;SDS011;12115;47.128;15.422;2022-11-27T06:01:30;4.90;;;2.00;;
23868;SDS011;12115;47.128;15.422;2022-11-27T06:03:57;3.72;;;2.38;;
23868;SDS011;12115;47.128;15.422;2022-11-27T06:06:26;2.83;;;2.10;;
23868;SDS011;12115;47.128;15.422;2022-11-27T06:08:53;3.28;;;2.40;;
23868;SDS011;12115;47.128;15.422;2022-11-27T06:11:20;4.18;;;2.47;;
23868;SDS011;12115;47.128;15.422;2022-11-27T06:13:48;3.95;;;2.53;;
23868;SDS011;12115;47.128;15.422;2022-11-27T06:16:17;3.20;;;2.35;;
23868;SDS011;12115;47.128;15.422;2022-11-27T06:18:53;2.47;;;1.83;;
23868;SDS011;12115;47.128;15.422;2022-11-27T06:21:21;3.40;;;2.58;;
23868;SDS011;12115;47.128;15.422;2022-11-27T06:23:52;7.70;;;1.90;;
23868;SDS011;12115;47.128;15.422;2022-11-27T06:28:50;3.90;;;2.80;;
23868;SDS011;12115;47.128;15.422;2022-11-27T06:31:21;3.63;;;3.03;;
23868;SDS011;12115;47.128;15.422;2022-11-27T06:33:54;3.35;;;2.65;;
23868;SDS011;12115;47.128;15.422;2022-11-27T06:36:23;3.85;;;2.33;;
23868;SDS011;12115;47.128;15.422;2022-11-27T06:41:20;5.03;;;2.60;;
23868;SDS011;12115;47.128;15.422;2022-11-27T06:43:50;4.40;;;2.80;;
23868;SDS011;12115;47.128;15.422;2022-11-27T06:46:17;3.97;;;2.88;;
23868;SDS011;12115;47.128;15.422;2022-11-27T06:48:47;6.18;;;4.05;;
23868;SDS011;12115;47.128;15.422;2022-11-27T06:51:15;7.03;;;3.65;;
23868;SDS011;12115;47.128;15.422;2022-11-27T06:53:44;5.70;;;3.22;;
23868;SDS011;12115;47.128;15.422;2022-11-27T06:56:13;4.40;;;2.95;;
23868;SDS011;12115;47.128;15.422;2022-11-27T06:58:41;5.28;;;2.90;;
23868;SDS011;12115;47.128;15.422;2022-11-27T07:01:13;3.67;;;2.80;;
23868;SDS011;12115;47.128;15.422;2022-11-27T07:03:42;4.18;;;2.80;;
23868;SDS011;12115;47.128;15.422;2022-11-27T07:06:10;8.13;;;3.50;;
23868;SDS011;12115;47.128;15.422;2022-11-27T07:08:40;4.25;;;3.25;;
23868;SDS011;12115;47.128;15.422;2022-11-27T07:11:11;5.88;;;3.83;;
23868;SDS011;12115;47.128;15.422;2022-11-27T07:13:40;5.10;;;3.47;;
23868;SDS011;12115;47.128;15.422;2022-11-27T07:16:08;6.53;;;3.45;;
23868;SDS011;12115;47.128;15.422;2022-11-27T07:18:37;5.55;;;2.90;;
23868;SDS011;12115;47.128;15.422;2022-11-27T07:21:08;8.48;;;2.83;;
23868;SDS011;12115;47.128;15.422;2022-11-27T07:23:36;4.85;;;3.22;;
23868;SDS011;12115;47.128;15.422;2022-11-27T07:26:14;5.57;;;3.95;;
23868;SDS011;12115;47.128;15.422;2022-11-27T07:28:44;10.32;;;6.25;;
23868;SDS011;12115;47.128;15.422;2022-11-27T07:31:11;12.40;;;8.20;;
23868;SDS011;12115;47.128;15.422;2022-11-27T07:33:41;11.07;;;7.13;;
23868;SDS011;12115;47.128;15.422;2022-11-27T07:38:42;11.68;;;6.68;;
23868;SDS011;12115;47.128;15.422;2022-11-27T07:41:10;8.88;;;5.53;;
23868;SDS011;12115;47.128;15.422;2022-11-27T07:43:38;8.13;;;5.40;;
23868;SDS011;12115;47.128;15.422;2022-11-27T07:46:06;5.90;;;4.22;;
23868;SDS011;12115;47.128;15.422;2022-11-27T07:48:36;9.68;;;6.25;;
23868;SDS011;12115;47.128;15.422;2022-11-27T07:51:04;11.20;;;5.72;;
23868;SDS011;12115;47.128;15.422;2022-11-27T07:53:34;12.13;;;6.45;;
23868;SDS011;12115;47.128;15.422;2022-11-27T07:56:05;11.40;;;7.35;;
23868;SDS011;12115;47.128;15.422;2022-11-27T07:58:33;12.88;;;5.60;;
23868;SDS011;12115;47.128;15.422;2022-11-27T08:01:04;11.02;;;5.78;;
23868;SDS011;12115;47.128;15.422;2022-11-27T08:03:33;5.75;;;4.22;;
23868;SDS011;12115;47.128;15.422;2022-11-27T08:06:00;8.43;;;4.38;;
23868;SDS011;12115;47.128;15.422;2022-11-27T08:08:27;8.18;;;4.20;;
23868;SDS011;12115;47.128;15.422;2022-11-27T08:10:54;6.10;;;3.25;;
23868;SDS011;12115;47.128;15.422;2022-11-27T08:13:21;6.68;;;3.83;;
23868;SDS011;12115;47.128;15.422;2022-11-27T08:15:48;5.22;;;3.70;;
23868;SDS011;12115;47.128;15.422;2022-11-27T08:18:15;5.78;;;3.67;;
23868;SDS011;12115;47.128;15.422;2022-11-27T08:20:43;4.20;;;3.40;;
23868;SDS011;12115;47.128;15.422;2022-11-27T08:23:10;6.40;;;3.63;;
23868;SDS011;12115;47.128;15.422;2022-11-27T08:25:37;4.22;;;3.70;;
23868;SDS011;12115;47.128;15.422;2022-11-27T08:28:04;3.53;;;3.00;;
23868;SDS011;12115;47.128;15.422;2022-11-27T08:30:31;5.68;;;3.13;;
23868;SDS011;12115;47.128;15.422;2022-11-27T08:32:58;6.45;;;3.53;;
23868;SDS011;12115;47.128;15.422;2022-11-27T08:35:25;6.28;;;3.95;;
23868;SDS011;12115;47.128;15.422;2022-11-27T08:37:52;4.10;;;3.55;;
23868;SDS011;12115;47.128;15.422;2022-11-27T08:40:19;4.40;;;3.78;;
23868;SDS011;12115;47.128;15.422;2022-11-27T08:42:46;5.13;;;3.60;;
23868;SDS011;12115;47.128;15.422;2022-11-27T08:45:13;6.85;;;4.28;;
23868;SDS011;12115;47.128;15.422;2022-11-27T08:47:41;7.63;;;5.40;;
23868;SDS011;12115;47.128;15.422;2022-11-27T08:50:09;9.48;;;5.20;;
23868;SDS011;12115;47.128;15.422;2022-11-27T08:52:36;8.80;;;4.28;;
23868;SDS011;12115;47.128;15.422;2022-11-27T08:55:03;8.57;;;4.78;;
23868;SDS011;12115;47.128;15.422;2022-11-27T08:57:30;5.78;;;4.95;;
23868;SDS011;12115;47.128;15.422;2022-11-27T08:59:57;6.53;;;5.35;;
23868;SDS011;12115;47.128;15.422;2022-11-27T09:02:24;6.90;;;4.70;;
23868;SDS011;12115;47.128;15.422;2022-11-27T09:04:51;8.02;;;5.03;;
23868;SDS011;12115;47.128;15.422;2022-11-27T09:07:18;5.60;;;4.60;;
23868;SDS011;12115;47.128;15.422;2022-11-27T09:09:45;5.78;;;5.15;;
23868;SDS011;12115;47.128;15.422;2022-11-27T09:12:12;5.53;;;4.63;;
23868;SDS011;12115;47.128;15.422;2022-11-27T09:14:39;7.22;;;5.03;;
23868;SDS011;12115;47.128;15.422;2022-11-27T09:17:07;5.63;;;4.53;;
23868;SDS011;12115;47.128;15.422;2022-11-27T09:19:34;5.75;;;4.97;;
23868;SDS011;12115;47.128;15.422;2022-11-27T09:22:01;7.35;;;4.82;;
23868;SDS011;12115;47.128;15.422;2022-11-27T09:24:28;6.88;;;4.90;;
23868;SDS011;12115;47.128;15.422;2022-11-27T09:26:55;5.60;;;4.70;;
23868;SDS011;12115;47.128;15.422;2022-11-27T09:29:22;8.18;;;4.43;;
23868;SDS011;12115;47.128;15.422;2022-11-27T09:31:49;4.93;;;4.43;;
23868;SDS011;12115;47.128;15.422;2022-11-27T09:34:16;6.35;;;4.45;;
23868;SDS011;12115;47.128;15.422;2022-11-27T09:36:43;7.10;;;4.57;;
23868;SDS011;12115;47.128;15.422;2022-11-27T09:39:10;5.90;;;4.90;;
23868;SDS011;12115;47.128;15.422;2022-11-27T09:47:03;8.88;;;4.70;;
23868;SDS011;12115;47.128;15.422;2022-11-27T09:54:45;6.93;;;4.28;;
23868;SDS011;12115;47.128;15.422;2022-11-27T09:57:25;5.10;;;4.50;;
23868;SDS011;12115;47.128;15.422;2022-11-27T09:59:57;6.50;;;4.35;;
23868;SDS011;12115;47.128;15.422;2022-11-27T10:02:31;7.25;;;4.45;;
23868;SDS011;12115;47.128;15.422;2022-11-27T10:05:02;4.88;;;4.10;;
23868;SDS011;12115;47.128;15.422;2022-11-27T10:16:30;5.90;;;4.53;;
23868;SDS011;12115;47.128;15.422;2022-11-27T10:19:14;5.70;;;4.47;;
23868;SDS011;12115;47.128;15.422;2022-11-27T10:22:14;6.05;;;4.72;;
23868;SDS011;12115;47.128;15.422;2022-11-27T10:28:01;6.93;;;4.13;;
23868;SDS011;12115;47.128;15.422;2022-11-27T10:30:32;5.35;;;3.75;;
23868;SDS011;12115;47.128;15.422;2022-11-27T10:33:14;4.88;;;3.60;;
23868;SDS011;12115;47.128;15.422;2022-11-27T10:35:45;5.05;;;3.85;;
23868;SDS011;12115;47.128;15.422;2022-11-27T10:38:21;5.30;;;3.35;;
23868;SDS011;12115;47.128;15.422;2022-11-27T10:41:09;5.78;;;2.75;;
23868;SDS011;12115;47.128;15.422;2022-11-27T10:44:11;4.45;;;2.67;;
23868;SDS011;12115;47.128;15.422;2022-11-27T10:47:05;4.07;;;2.92;;
23868;SDS011;12115;47.128;15.422;2022-11-27T10:49:37;4.95;;;3.35;;
23868;SDS011;12115;47.128;15.422;2022-11-27T10:52:13;4.85;;;3.22;;
23868;SDS011;12115;47.128;15.422;2022-11-27T10:54:42;5.88;;;3.33;;
23868;SDS011;12115;47.128;15.422;2022-11-27T10:57:36;4.10;;;2.72;;
23868;SDS011;12115;47.128;15.422;2022-11-27T11:00:21;4.40;;;3.10;;
23868;SDS011;12115;47.128;15.422;2022-11-27T11:03:00;4.80;;;3.20;;
23868;SDS011;12115;47.128;15.422;2022-11-27T11:05:29;4.88;;;3.47;;
23868;SDS011;12115;47.128;15.422;2022-11-27T11:08:18;6.30;;;3.17;;
23868;SDS011;12115;47.128;15.422;2022-11-27T11:10:50;5.43;;;3.28;;
23868;SDS011;12115;47.128;15.422;2022-11-27T11:13:20;7.13;;;3.20;;
23868;SDS011;12115;47.128;15.422;2022-11-27T11:18:41;4.68;;;3.08;;
23868;SDS011;12115;47.128;15.422;2022-11-27T11:21:15;3.15;;;2.55;;
23868;SDS011;12115;47.128;15.422;2022-11-27T11:23:43;5.82;;;2.80;;
23868;SDS011;12115;47.128;15.422;2022-11-27T11:26:23;6.07;;;3.13;;
23868;SDS011;12115;47.128;15.422;2022-11-27T11:28:54;3.42;;;2.80;;
23868;SDS011;12115;47.128;15.422;2022-11-27T11:31:37;4.30;;;2.95;;
23868;SDS011;12115;47.128;15.422;2022-11-27T11:34:28;5.38;;;3.20;;
23868;SDS011;12115;47.128;15.422;2022-11-27T11:37:06;6.93;;;3.22;;
23868;SDS011;12115;47.128;15.422;2022-11-27T11:39:46;5.45;;;2.70;;
23868;SDS011;12115;47.128;15.422;2022-11-27T11:42:30;5.45;;;2.97;;
23868;SDS011;12115;47.128;15.422;2022-11-27T11:45:14;4.70;;;3.20;;
23868;SDS011;12115;47.128;15.422;2022-11-27T11:47:43;8.10;;;3.22;;
23868;SDS011;12115;47.128;15.422;2022-11-27T11:50:16;6.57;;;2.38;;
23868;SDS011;12115;47.128;15.422;2022-11-27T11:53:20;4.57;;;2.67;;
23868;SDS011;12115;47.128;15.422;2022-11-27T11:56:04;6.03;;;2.35;;
23868;SDS011;12115;47.128;15.422;2022-11-27T11:58:59;5.30;;;3.08;;
23868;SDS011;12115;47.128;15.422;2022-11-27T12:18:37;7.57;;;2.63;;
23868;SDS011;12115;47.128;15.422;2022-11-27T12:21:23;3.05;;;2.38;;
23868;SDS011;12115;47.128;15.422;2022-11-27T12:30:05;4.65;;;2.50;;
23868;SDS011;12115;47.128;15.422;2022-11-27T12:32:28;4.32;;;2.28;;
23868;SDS011;12115;47.128;15.422;2022-11-27T12:35:34;5.55;;;2.28;;
23868;SDS011;12115;47.128;15.422;2022-11-27T12:43:27;4.80;;;2.45;;
23868;SDS011;12115;47.128;15.422;2022-11-27T12:48:34;6.53;;;2.08;;
23868;SDS011;12115;47.128;15.422;2022-11-27T12:51:17;4.40;;;2.17;;
23868;SDS011;12115;47.128;15.422;2022-11-27T12:53:56;3.13;;;1.92;;
23868;SDS011;12115;47.128;15.422;2022-11-27T12:56:43;6.20;;;2.40;;
23868;SDS011;12115;47.128;15.422;2022-11-27T13:05:00;3.38;;;1.52;;
23868;SDS011;12115;47.128;15.422;2022-11-27T13:13:03;6.78;;;2.40;;
23868;SDS011;12115;47.128;15.422;2022-11-27T13:21:14;6.65;;;2.08;;
23868;SDS011;12115;47.128;15.422;2022-11-27T13:23:45;3.72;;;2.13;;
23868;SDS011;12115;47.128;15.422;2022-11-27T13:26:18;4.00;;;1.83;;
23868;SDS011;12115;47.128;15.422;2022-11-27T13:28:53;3.95;;;2.33;;
23868;SDS011;12115;47.128;15.422;2022-11-27T13:31:34;4.47;;;2.30;;
23868;SDS011;12115;47.128;15.422;2022-11-27T13:34:05;3.33;;;2.15;;
23868;SDS011;12115;47.128;15.422;2022-11-27T13:36:39;3.33;;;1.87;;
23868;SDS011;12115;47.128;15.422;2022-11-27T13:39:29;4.90;;;2.75;;
23868;SDS011;12115;47.128;15.422;2022-11-27T13:44:33;4.40;;;2.25;;
23868;SDS011;12115;47.128;15.422;2022-11-27T13:47:12;4.28;;;2.00;;
23868;SDS011;12115;47.128;15.422;2022-11-27T13:49:42;4.75;;;2.17;;
23868;SDS011;12115;47.128;15.422;2022-11-27T13:52:15;4.63;;;2.13;;
23868;SDS011;12115;47.128;15.422;2022-11-27T13:57:23;4.38;;;2.30;;
23868;SDS011;12115;47.128;15.422;2022-11-27T13:59:59;3.33;;;1.90;;
23868;SDS011;12115;47.128;15.422;2022-11-27T14:02:48;5.43;;;2.28;;
23868;SDS011;12115;47.128;15.422;2022-11-27T14:05:18;4.95;;;2.10;;
23868;SDS011;12115;47.128;15.422;2022-11-27T14:07:48;3.33;;;2.20;;
23868;SDS011;12115;47.128;15.422;2022-11-27T14:10:22;3.97;;;2.10;;
23868;SDS011;12115;47.128;15.422;2022-11-27T14:15:34;3.05;;;2.15;;
23868;SDS011;12115;47.128;15.422;2022-11-27T14:20:43;4.70;;;2.25;;
23868;SDS011;12115;47.128;15.422;2022-11-27T14:23:25;4.95;;;2.58;;
23868;SDS011;12115;47.128;15.422;2022-11-27T14:26:00;5.57;;;3.08;;
23868;SDS011;12115;47.128;15.422;2022-11-27T14:28:42;5.35;;;2.83;;
23868;SDS011;12115;47.128;15.422;2022-11-27T14:31:20;5.72;;;2.65;;
23868;SDS011;12115;47.128;15.422;2022-11-27T14:33:52;4.20;;;2.75;;
23868;SDS011;12115;47.128;15.422;2022-11-27T14:36:39;6.32;;;2.75;;
23868;SDS011;12115;47.128;15.422;2022-11-27T14:39:18;4.55;;;2.47;;
23868;SDS011;12115;47.128;15.422;2022-11-27T14:44:24;4.28;;;2.30;;
23868;SDS011;12115;47.128;15.422;2022-11-27T14:46:51;4.38;;;2.00;;
23868;SDS011;12115;47.128;15.422;2022-11-27T14:49:20;4.85;;;1.80;;
23868;SDS011;12115;47.128;15.422;2022-11-27T14:51:49;4.00;;;1.92;;
23868;SDS011;12115;47.128;15.422;2022-11-27T14:54:24;4.93;;;2.38;;
23868;SDS011;12115;47.128;15.422;2022-11-27T14:56:55;4.20;;;1.67;;
23868;SDS011;12115;47.128;15.422;2022-11-27T14:59:24;3.78;;;2.08;;
23868;SDS011;12115;47.128;15.422;2022-11-27T15:04:28;3.35;;;2.25;;
23868;SDS011;12115;47.128;15.422;2022-11-27T15:07:00;6.05;;;2.88;;
23868;SDS011;12115;47.128;15.422;2022-11-27T15:09:32;6.13;;;2.95;;
23868;SDS011;12115;47.128;15.422;2022-11-27T15:12:13;4.55;;;2.85;;
23868;SDS011;12115;47.128;15.422;2022-11-27T15:17:31;5.55;;;3.92;;
23868;SDS011;12115;47.128;15.422;2022-11-27T15:20:01;5.97;;;3.40;;
23868;SDS011;12115;47.128;15.422;2022-11-27T15:22:36;7.35;;;4.20;;
23868;SDS011;12115;47.128;15.422;2022-11-27T15:25:05;5.40;;;3.45;;
23868;SDS011;12115;47.128;15.422;2022-11-27T15:27:53;10.50;;;5.90;;
23868;SDS011;12115;47.128;15.422;2022-11-27T15:30:20;13.75;;;9.15;;
23868;SDS011;12115;47.128;15.422;2022-11-27T15:32:48;20.42;;;12.65;;
23868;SDS011;12115;47.128;15.422;2022-11-27T15:35:27;17.33;;;10.98;;
23868;SDS011;12115;47.128;15.422;2022-11-27T15:37:58;11.77;;;6.57;;
23868;SDS011;12115;47.128;15.422;2022-11-27T15:40:31;6.40;;;4.47;;
23868;SDS011;12115;47.128;15.422;2022-11-27T15:43:02;7.80;;;4.78;;
23868;SDS011;12115;47.128;15.422;2022-11-27T15:45:36;5.88;;;3.70;;
23868;SDS011;12115;47.128;15.422;2022-11-27T15:48:04;4.93;;;3.60;;
23868;SDS011;12115;47.128;15.422;2022-11-27T15:50:39;10.15;;;7.32;;
23868;SDS011;12115;47.128;15.422;2022-11-27T15:55:38;10.65;;;8.27;;
23868;SDS011;12115;47.128;15.422;2022-11-27T15:58:06;7.00;;;6.28;;
23868;SDS011;12115;47.128;15.422;2022-11-27T16:00:33;7.25;;;5.93;;
23868;SDS011;12115;47.128;15.422;2022-11-27T16:03:00;7.50;;;5.45;;
23868;SDS011;12115;47.128;15.422;2022-11-27T16:05:28;9.23;;;6.85;;
23868;SDS011;12115;47.128;15.422;2022-11-27T16:07:55;9.70;;;5.43;;
23868;SDS011;12115;47.128;15.422;2022-11-27T16:10:24;10.88;;;5.65;;
23868;SDS011;12115;47.128;15.422;2022-11-27T16:12:51;11.45;;;7.10;;
23868;SDS011;12115;47.128;15.422;2022-11-27T16:15:21;9.32;;;6.57;;
23868;SDS011;12115;47.128;15.422;2022-11-27T16:17:50;11.02;;;6.20;;
23868;SDS011;12115;47.128;15.422;2022-11-27T16:20:19;14.10;;;8.30;;
23868;SDS011;12115;47.128;15.422;2022-11-27T16:22:46;13.02;;;8.52;;
23868;SDS011;12115;47.128;15.422;2022-11-27T16:25:14;20.55;;;14.32;;
23868;SDS011;12115;47.128;15.422;2022-11-27T16:27:42;19.52;;;12.88;;
23868;SDS011;12115;47.128;15.422;2022-11-27T16:30:11;15.18;;;8.60;;
23868;SDS011;12115;47.128;15.422;2022-11-27T16:32:40;14.30;;;8.20;;
23868;SDS011;12115;47.128;15.422;2022-11-27T16:35:08;14.20;;;8.98;;
23868;SDS011;12115;47.128;15.422;2022-11-27T16:37:36;15.80;;;10.48;;
23868;SDS011;12115;47.128;15.422;2022-11-27T16:40:04;18.13;;;8.88;;
23868;SDS011;12115;47.128;15.422;2022-11-27T16:42:34;12.95;;;9.32;;
23868;SDS011;12115;47.128;15.422;2022-11-27T16:45:01;15.98;;;7.72;;
23868;SDS011;12115;47.128;15.422;2022-11-27T16:47:29;15.15;;;7.18;;
23868;SDS011;12115;47.128;15.422;2022-11-27T16:50:00;10.88;;;6.63;;
23868;SDS011;12115;47.128;15.422;2022-11-27T16:52:28;13.35;;;6.93;;
23868;SDS011;12115;47.128;15.422;2022-11-27T16:54:56;8.85;;;5.97;;
23868;SDS011;12115;47.128;15.422;2022-11-27T16:57:23;8.45;;;5.35;;
23868;SDS011;12115;47.128;15.422;2022-11-27T16:59:51;9.05;;;5.68;;
23868;SDS011;12115;47.128;15.422;2022-11-27T17:02:19;14.32;;;9.30;;
23868;SDS011;12115;47.128;15.422;2022-11-27T17:04:47;12.57;;;7.68;;
23868;SDS011;12115;47.128;15.422;2022-11-27T17:07:15;12.13;;;6.75;;
23868;SDS011;12115;47.128;15.422;2022-11-27T17:09:42;9.70;;;5.88;;
23868;SDS011;12115;47.128;15.422;2022-11-27T17:12:10;10.18;;;6.95;;
23868;SDS011;12115;47.128;15.422;2022-11-27T17:14:38;19.35;;;15.32;;
23868;SDS011;12115;47.128;15.422;2022-11-27T17:17:11;14.68;;;11.60;;
23868;SDS011;12115;47.128;15.422;2022-11-27T17:19:39;19.58;;;14.70;;